Shamrock — SIHM — position and weather

sailwx.info

Track history (hours):
 
Tides and Currents Weather Stations Pressure Air Temp Water Temp Dewpoint Dewpoint Depression Visibility Wind Speed Wind Dir Waves Ship Positions

Shamrock

Last reported at 2015-Dec-07 06:28 UTC. Time now 2016-Feb-09 05:39 UTC.
Position N 59°20' E 018°05'.
Warning: this ship's position is months out of date.

Length 26 m; draft 3 m.

Type: Sailing vessel. MMSI: 265572260.

Date/timePositionNaut miles runAvg speedWind from/ knotsBaromVisibWave heightAir tempDewpointWater temp
2015-Dec-07 06:28N 59°20' E 018°05'  
2015-Dec-01 15:05N 59°20' E 018°05'0 0.0
2015-Dec-01 12:23N 59°20' E 018°05'0 0.0
2015-Dec-01 11:29N 59°20' E 018°05'  
2015-Nov-27 16:28N 59°19' E 018°09'23 5.4
2015-Nov-27 12:17N 59°35' E 018°41'4 5.6
2015-Nov-27 11:33N 59°37' E 018°48'6 5.7
2015-Nov-27 10:33N 59°40' E 018°57'2 1.1
2015-Nov-27 08:31N 59°42' E 019°01'5 4.4
2015-Nov-27 07:25N 59°38' E 018°54'0 0.0
2015-Nov-27 06:31N 59°38' E 018°54'  
Track history (hours):
 
Tides and Currents Weather Stations Pressure Air Temp Water Temp Dewpoint Dewpoint Depression Visibility Wind Speed Wind Dir Waves Ship Positions

Shamrock

Last reported at 2015-Dec-07 06:28 UTC. Time now 2016-Feb-09 05:39 UTC.
Position N 59°20' E 018°05'.
Warning: this ship's position is months out of date.

Length 26 m; draft 3 m.

Type: Sailing vessel. MMSI: 265572260.

Date/timePositionNaut miles runAvg speedWind from/ knotsBaromVisibWave heightAir tempDewpointWater temp
2015-Dec-07 06:28N 59°20' E 018°05'  
2015-Dec-01 15:05N 59°20' E 018°05'0 0.0
2015-Dec-01 12:23N 59°20' E 018°05'0 0.0
2015-Dec-01 11:29N 59°20' E 018°05'  
2015-Nov-27 16:28N 59°19' E 018°09'23 5.4
2015-Nov-27 12:17N 59°35' E 018°41'4 5.6
2015-Nov-27 11:33N 59°37' E 018°48'6 5.7
2015-Nov-27 10:33N 59°40' E 018°57'2 1.1
2015-Nov-27 08:31N 59°42' E 019°01'5 4.4
2015-Nov-27 07:25N 59°38' E 018°54'0 0.0
2015-Nov-27 06:31N 59°38' E 018°54'  

Dump ship's entire track history